sensor_id;sensor_type;location;lat;lon;timestamp;P1;durP1;ratioP1;P2;durP2;ratioP2
55811;SDS011;41742;52.048;6.092;2022-11-14T00:01:48;15.93;;;8.50;;
55811;SDS011;41742;52.048;6.092;2022-11-14T00:04:32;15.13;;;8.48;;
55811;SDS011;41742;52.048;6.092;2022-11-14T00:07:16;12.70;;;7.72;;
55811;SDS011;41742;52.048;6.092;2022-11-14T00:10:01;18.10;;;9.10;;
55811;SDS011;41742;52.048;6.092;2022-11-14T00:12:45;19.77;;;8.05;;
55811;SDS011;41742;52.048;6.092;2022-11-14T00:15:29;16.98;;;9.50;;
55811;SDS011;41742;52.048;6.092;2022-11-14T00:18:13;15.15;;;8.77;;
55811;SDS011;41742;52.048;6.092;2022-11-14T00:20:57;24.38;;;9.98;;
55811;SDS011;41742;52.048;6.092;2022-11-14T00:23:41;21.15;;;10.57;;
55811;SDS011;41742;52.048;6.092;2022-11-14T00:26:25;16.17;;;9.32;;
55811;SDS011;41742;52.048;6.092;2022-11-14T00:29:10;18.20;;;8.35;;
55811;SDS011;41742;52.048;6.092;2022-11-14T00:31:55;20.17;;;9.38;;
55811;SDS011;41742;52.048;6.092;2022-11-14T00:34:39;22.17;;;10.45;;
55811;SDS011;41742;52.048;6.092;2022-11-14T00:37:23;18.08;;;9.32;;
55811;SDS011;41742;52.048;6.092;2022-11-14T00:40:07;20.75;;;9.75;;
55811;SDS011;41742;52.048;6.092;2022-11-14T00:42:52;22.88;;;10.38;;
55811;SDS011;41742;52.048;6.092;2022-11-14T00:45:36;21.02;;;10.77;;
55811;SDS011;41742;52.048;6.092;2022-11-14T00:48:20;21.77;;;9.85;;
55811;SDS011;41742;52.048;6.092;2022-11-14T00:51:04;18.10;;;9.77;;
55811;SDS011;41742;52.048;6.092;2022-11-14T00:53:48;18.73;;;9.55;;
55811;SDS011;41742;52.048;6.092;2022-11-14T00:56:32;21.05;;;11.00;;
55811;SDS011;41742;52.048;6.092;2022-11-14T00:59:16;22.00;;;10.93;;
55811;SDS011;41742;52.048;6.092;2022-11-14T01:02:00;15.65;;;8.95;;
55811;SDS011;41742;52.048;6.092;2022-11-14T01:04:44;21.35;;;10.98;;
55811;SDS011;41742;52.048;6.092;2022-11-14T01:07:28;20.42;;;9.90;;
55811;SDS011;41742;52.048;6.092;2022-11-14T01:10:12;22.83;;;9.63;;
55811;SDS011;41742;52.048;6.092;2022-11-14T01:12:56;21.38;;;10.73;;
55811;SDS011;41742;52.048;6.092;2022-11-14T01:15:41;22.95;;;10.13;;
55811;SDS011;41742;52.048;6.092;2022-11-14T01:18:26;19.75;;;10.18;;
55811;SDS011;41742;52.048;6.092;2022-11-14T01:23:55;24.33;;;11.05;;
55811;SDS011;41742;52.048;6.092;2022-11-14T01:26:39;16.10;;;9.75;;
55811;SDS011;41742;52.048;6.092;2022-11-14T01:29:23;19.90;;;11.27;;
55811;SDS011;41742;52.048;6.092;2022-11-14T01:32:07;29.67;;;12.15;;
55811;SDS011;41742;52.048;6.092;2022-11-14T01:34:51;23.05;;;10.98;;
55811;SDS011;41742;52.048;6.092;2022-11-14T01:37:35;21.25;;;11.07;;
55811;SDS011;41742;52.048;6.092;2022-11-14T01:40:20;20.17;;;10.13;;
55811;SDS011;41742;52.048;6.092;2022-11-14T01:49:02;21.55;;;10.07;;
55811;SDS011;41742;52.048;6.092;2022-11-14T01:52:05;18.42;;;9.50;;
55811;SDS011;41742;52.048;6.092;2022-11-14T01:54:52;16.98;;;9.30;;
55811;SDS011;41742;52.048;6.092;2022-11-14T01:57:40;17.35;;;10.23;;
55811;SDS011;41742;52.048;6.092;2022-11-14T02:00:26;21.58;;;10.80;;
55811;SDS011;41742;52.048;6.092;2022-11-14T02:03:11;24.80;;;11.90;;
55811;SDS011;41742;52.048;6.092;2022-11-14T02:05:57;19.48;;;11.07;;
55811;SDS011;41742;52.048;6.092;2022-11-14T02:08:42;24.38;;;12.38;;
55811;SDS011;41742;52.048;6.092;2022-11-14T02:11:28;24.50;;;11.73;;
55811;SDS011;41742;52.048;6.092;2022-11-14T02:14:14;20.88;;;11.43;;
55811;SDS011;41742;52.048;6.092;2022-11-14T02:16:58;22.88;;;10.38;;
55811;SDS011;41742;52.048;6.092;2022-11-14T02:19:53;25.40;;;11.73;;
55811;SDS011;41742;52.048;6.092;2022-11-14T02:22:46;20.95;;;11.30;;
55811;SDS011;41742;52.048;6.092;2022-11-14T02:25:30;25.85;;;11.95;;
55811;SDS011;41742;52.048;6.092;2022-11-14T02:28:14;21.90;;;10.98;;
55811;SDS011;41742;52.048;6.092;2022-11-14T02:30:59;23.42;;;11.25;;
55811;SDS011;41742;52.048;6.092;2022-11-14T02:33:43;22.73;;;10.50;;
55811;SDS011;41742;52.048;6.092;2022-11-14T02:39:11;17.53;;;10.10;;
55811;SDS011;41742;52.048;6.092;2022-11-14T02:41:55;20.48;;;10.93;;
55811;SDS011;41742;52.048;6.092;2022-11-14T02:44:39;18.90;;;10.27;;
55811;SDS011;41742;52.048;6.092;2022-11-14T02:47:23;21.20;;;9.80;;
55811;SDS011;41742;52.048;6.092;2022-11-14T02:50:07;22.40;;;11.32;;
55811;SDS011;41742;52.048;6.092;2022-11-14T02:52:52;20.38;;;10.65;;
55811;SDS011;41742;52.048;6.092;2022-11-14T02:55:36;20.58;;;10.43;;
55811;SDS011;41742;52.048;6.092;2022-11-14T02:58:20;23.13;;;10.82;;
55811;SDS011;41742;52.048;6.092;2022-11-14T03:01:04;19.70;;;9.82;;
55811;SDS011;41742;52.048;6.092;2022-11-14T03:03:48;22.13;;;11.60;;
55811;SDS011;41742;52.048;6.092;2022-11-14T03:06:32;19.08;;;9.95;;
55811;SDS011;41742;52.048;6.092;2022-11-14T03:09:17;21.88;;;11.02;;
55811;SDS011;41742;52.048;6.092;2022-11-14T03:12:01;19.38;;;9.73;;
55811;SDS011;41742;52.048;6.092;2022-11-14T03:14:45;21.85;;;10.68;;
55811;SDS011;41742;52.048;6.092;2022-11-14T03:17:30;21.83;;;10.52;;
55811;SDS011;41742;52.048;6.092;2022-11-14T03:20:15;17.73;;;10.27;;
55811;SDS011;41742;52.048;6.092;2022-11-14T03:23:00;20.73;;;10.93;;
55811;SDS011;41742;52.048;6.092;2022-11-14T03:25:45;21.85;;;11.48;;
55811;SDS011;41742;52.048;6.092;2022-11-14T03:28:29;19.15;;;10.43;;
55811;SDS011;41742;52.048;6.092;2022-11-14T03:31:13;18.77;;;10.50;;
55811;SDS011;41742;52.048;6.092;2022-11-14T03:33:58;17.77;;;9.32;;
55811;SDS011;41742;52.048;6.092;2022-11-14T03:36:42;17.35;;;9.43;;
55811;SDS011;41742;52.048;6.092;2022-11-14T03:39:26;20.80;;;10.57;;
55811;SDS011;41742;52.048;6.092;2022-11-14T03:42:10;19.83;;;10.30;;
55811;SDS011;41742;52.048;6.092;2022-11-14T03:44:54;19.55;;;9.93;;
55811;SDS011;41742;52.048;6.092;2022-11-14T03:47:38;20.77;;;9.80;;
55811;SDS011;41742;52.048;6.092;2022-11-14T03:50:23;20.15;;;9.68;;
55811;SDS011;41742;52.048;6.092;2022-11-14T03:53:07;19.92;;;10.40;;
55811;SDS011;41742;52.048;6.092;2022-11-14T03:55:51;23.27;;;11.30;;
55811;SDS011;41742;52.048;6.092;2022-11-14T03:58:35;21.23;;;10.90;;
55811;SDS011;41742;52.048;6.092;2022-11-14T04:01:20;25.33;;;10.98;;
55811;SDS011;41742;52.048;6.092;2022-11-14T04:06:48;24.80;;;11.45;;
55811;SDS011;41742;52.048;6.092;2022-11-14T04:09:32;23.23;;;10.45;;
55811;SDS011;41742;52.048;6.092;2022-11-14T04:12:17;21.25;;;10.38;;
55811;SDS011;41742;52.048;6.092;2022-11-14T04:15:01;20.67;;;10.10;;
55811;SDS011;41742;52.048;6.092;2022-11-14T04:17:45;21.20;;;10.38;;
55811;SDS011;41742;52.048;6.092;2022-11-14T04:20:30;20.60;;;9.65;;
55811;SDS011;41742;52.048;6.092;2022-11-14T04:23:14;19.48;;;10.27;;
55811;SDS011;41742;52.048;6.092;2022-11-14T04:28:42;21.27;;;10.97;;
55811;SDS011;41742;52.048;6.092;2022-11-14T04:31:26;18.42;;;9.65;;
55811;SDS011;41742;52.048;6.092;2022-11-14T04:34:10;20.02;;;10.77;;
55811;SDS011;41742;52.048;6.092;2022-11-14T04:36:54;17.05;;;9.38;;
55811;SDS011;41742;52.048;6.092;2022-11-14T04:39:38;25.15;;;10.23;;
55811;SDS011;41742;52.048;6.092;2022-11-14T04:42:23;20.88;;;10.70;;
55811;SDS011;41742;52.048;6.092;2022-11-14T04:45:08;22.70;;;10.00;;
55811;SDS011;41742;52.048;6.092;2022-11-14T04:47:53;17.98;;;9.88;;
55811;SDS011;41742;52.048;6.092;2022-11-14T04:50:37;20.45;;;9.98;;
55811;SDS011;41742;52.048;6.092;2022-11-14T04:53:21;18.38;;;10.20;;
55811;SDS011;41742;52.048;6.092;2022-11-14T04:56:05;21.20;;;9.65;;
55811;SDS011;41742;52.048;6.092;2022-11-14T04:58:50;22.20;;;10.52;;
55811;SDS011;41742;52.048;6.092;2022-11-14T05:01:34;20.17;;;9.32;;
55811;SDS011;41742;52.048;6.092;2022-11-14T05:04:18;20.75;;;9.95;;
55811;SDS011;41742;52.048;6.092;2022-11-14T05:07:02;26.70;;;10.57;;
55811;SDS011;41742;52.048;6.092;2022-11-14T05:09:47;19.58;;;11.00;;
55811;SDS011;41742;52.048;6.092;2022-11-14T05:12:31;28.05;;;10.27;;
55811;SDS011;41742;52.048;6.092;2022-11-14T05:15:15;22.38;;;11.10;;
55811;SDS011;41742;52.048;6.092;2022-11-14T05:17:59;21.02;;;9.82;;
55811;SDS011;41742;52.048;6.092;2022-11-14T05:20:43;23.05;;;9.85;;
55811;SDS011;41742;52.048;6.092;2022-11-14T05:23:27;18.10;;;9.35;;
55811;SDS011;41742;52.048;6.092;2022-11-14T05:26:13;16.70;;;9.35;;
55811;SDS011;41742;52.048;6.092;2022-11-14T05:28:58;20.55;;;10.30;;
55811;SDS011;41742;52.048;6.092;2022-11-14T05:31:43;18.48;;;9.15;;
55811;SDS011;41742;52.048;6.092;2022-11-14T05:34:27;22.15;;;9.90;;
55811;SDS011;41742;52.048;6.092;2022-11-14T05:37:11;18.58;;;9.88;;
55811;SDS011;41742;52.048;6.092;2022-11-14T05:39:55;18.40;;;9.75;;
55811;SDS011;41742;52.048;6.092;2022-11-14T05:42:39;15.55;;;9.13;;
55811;SDS011;41742;52.048;6.092;2022-11-14T05:45:23;18.42;;;9.32;;
55811;SDS011;41742;52.048;6.092;2022-11-14T05:48:08;17.00;;;9.10;;
55811;SDS011;41742;52.048;6.092;2022-11-14T05:53:37;21.63;;;9.65;;
55811;SDS011;41742;52.048;6.092;2022-11-14T05:56:23;19.60;;;10.18;;
55811;SDS011;41742;52.048;6.092;2022-11-14T05:59:07;17.63;;;9.70;;
55811;SDS011;41742;52.048;6.092;2022-11-14T06:01:51;21.25;;;9.88;;
55811;SDS011;41742;52.048;6.092;2022-11-14T06:04:36;22.10;;;9.27;;
55811;SDS011;41742;52.048;6.092;2022-11-14T06:10:04;22.23;;;8.95;;
55811;SDS011;41742;52.048;6.092;2022-11-14T06:12:49;22.50;;;10.02;;
55811;SDS011;41742;52.048;6.092;2022-11-14T06:15:33;21.40;;;9.93;;
55811;SDS011;41742;52.048;6.092;2022-11-14T06:18:17;19.75;;;9.43;;
55811;SDS011;41742;52.048;6.092;2022-11-14T06:23:56;13.85;;;8.63;;
55811;SDS011;41742;52.048;6.092;2022-11-14T06:26:40;20.67;;;10.27;;
55811;SDS011;41742;52.048;6.092;2022-11-14T06:29:24;19.65;;;9.73;;
55811;SDS011;41742;52.048;6.092;2022-11-14T06:32:08;22.17;;;10.07;;
55811;SDS011;41742;52.048;6.092;2022-11-14T06:34:52;21.35;;;9.75;;
55811;SDS011;41742;52.048;6.092;2022-11-14T06:37:36;20.60;;;10.48;;
55811;SDS011;41742;52.048;6.092;2022-11-14T06:40:20;25.65;;;10.90;;
55811;SDS011;41742;52.048;6.092;2022-11-14T06:43:04;20.35;;;9.65;;
55811;SDS011;41742;52.048;6.092;2022-11-14T06:45:48;18.88;;;9.55;;
55811;SDS011;41742;52.048;6.092;2022-11-14T06:48:36;20.13;;;8.77;;
55811;SDS011;41742;52.048;6.092;2022-11-14T06:54:04;19.67;;;9.50;;
55811;SDS011;41742;52.048;6.092;2022-11-14T06:56:48;14.70;;;9.02;;
55811;SDS011;41742;52.048;6.092;2022-11-14T06:59:32;20.58;;;10.75;;
55811;SDS011;41742;52.048;6.092;2022-11-14T07:02:16;19.25;;;9.38;;
55811;SDS011;41742;52.048;6.092;2022-11-14T07:05:00;24.33;;;10.57;;
55811;SDS011;41742;52.048;6.092;2022-11-14T07:07:44;21.90;;;9.55;;
55811;SDS011;41742;52.048;6.092;2022-11-14T07:10:28;22.90;;;9.77;;
55811;SDS011;41742;52.048;6.092;2022-11-14T07:13:13;17.85;;;9.40;;
55811;SDS011;41742;52.048;6.092;2022-11-14T07:15:56;17.73;;;8.93;;
55811;SDS011;41742;52.048;6.092;2022-11-14T07:18:40;18.05;;;8.80;;
55811;SDS011;41742;52.048;6.092;2022-11-14T07:21:25;28.30;;;9.88;;
55811;SDS011;41742;52.048;6.092;2022-11-14T07:24:11;20.23;;;9.50;;
55811;SDS011;41742;52.048;6.092;2022-11-14T07:26:55;19.20;;;8.75;;
55811;SDS011;41742;52.048;6.092;2022-11-14T07:29:39;21.13;;;9.88;;
55811;SDS011;41742;52.048;6.092;2022-11-14T07:32:23;22.05;;;9.45;;
55811;SDS011;41742;52.048;6.092;2022-11-14T07:35:07;23.02;;;10.02;;
55811;SDS011;41742;52.048;6.092;2022-11-14T07:37:51;20.60;;;11.20;;
55811;SDS011;41742;52.048;6.092;2022-11-14T07:40:35;23.17;;;10.18;;
55811;SDS011;41742;52.048;6.092;2022-11-14T07:43:19;30.45;;;11.20;;
55811;SDS011;41742;52.048;6.092;2022-11-14T07:46:11;23.90;;;11.52;;
55811;SDS011;41742;52.048;6.092;2022-11-14T07:48:57;17.83;;;9.40;;
55811;SDS011;41742;52.048;6.092;2022-11-14T07:54:25;19.60;;;10.20;;
55811;SDS011;41742;52.048;6.092;2022-11-14T07:57:09;24.98;;;10.10;;
55811;SDS011;41742;52.048;6.092;2022-11-14T07:59:53;19.40;;;10.77;;
55811;SDS011;41742;52.048;6.092;2022-11-14T08:02:37;20.88;;;9.35;;
55811;SDS011;41742;52.048;6.092;2022-11-14T08:05:22;19.60;;;9.77;;
55811;SDS011;41742;52.048;6.092;2022-11-14T08:08:06;22.10;;;10.20;;
55811;SDS011;41742;52.048;6.092;2022-11-14T08:10:50;16.65;;;8.38;;
55811;SDS011;41742;52.048;6.092;2022-11-14T08:13:38;20.52;;;9.20;;
55811;SDS011;41742;52.048;6.092;2022-11-14T08:16:22;23.20;;;9.38;;
55811;SDS011;41742;52.048;6.092;2022-11-14T08:19:06;20.27;;;9.63;;
55811;SDS011;41742;52.048;6.092;2022-11-14T08:21:50;14.85;;;8.35;;
55811;SDS011;41742;52.048;6.092;2022-11-14T08:24:34;20.15;;;9.32;;
55811;SDS011;41742;52.048;6.092;2022-11-14T08:27:18;18.20;;;8.38;;
55811;SDS011;41742;52.048;6.092;2022-11-14T08:30:02;16.08;;;9.00;;
55811;SDS011;41742;52.048;6.092;2022-11-14T08:32:47;21.23;;;9.43;;
55811;SDS011;41742;52.048;6.092;2022-11-14T08:38:15;17.80;;;9.00;;
55811;SDS011;41742;52.048;6.092;2022-11-14T08:41:00;16.13;;;8.32;;
55811;SDS011;41742;52.048;6.092;2022-11-14T08:43:44;18.20;;;8.68;;
55811;SDS011;41742;52.048;6.092;2022-11-14T08:46:29;19.20;;;8.90;;
55811;SDS011;41742;52.048;6.092;2022-11-14T08:49:13;21.08;;;9.98;;
55811;SDS011;41742;52.048;6.092;2022-11-14T08:51:57;19.90;;;10.55;;
55811;SDS011;41742;52.048;6.092;2022-11-14T08:57:25;23.08;;;11.70;;
55811;SDS011;41742;52.048;6.092;2022-11-14T09:00:09;20.65;;;9.82;;
55811;SDS011;41742;52.048;6.092;2022-11-14T09:02:54;19.48;;;10.40;;
55811;SDS011;41742;52.048;6.092;2022-11-14T09:05:38;16.23;;;9.23;;
55811;SDS011;41742;52.048;6.092;2022-11-14T09:08:22;22.42;;;9.27;;
55811;SDS011;41742;52.048;6.092;2022-11-14T09:11:06;18.08;;;8.52;;
55811;SDS011;41742;52.048;6.092;2022-11-14T09:13:51;20.50;;;9.57;;
55811;SDS011;41742;52.048;6.092;2022-11-14T09:16:35;19.02;;;9.55;;
55811;SDS011;41742;52.048;6.092;2022-11-14T09:19:19;19.75;;;9.88;;
55811;SDS011;41742;52.048;6.092;2022-11-14T09:22:03;22.77;;;9.40;;
55811;SDS011;41742;52.048;6.092;2022-11-14T09:24:47;20.45;;;9.20;;
55811;SDS011;41742;52.048;6.092;2022-11-14T09:27:32;26.33;;;10.40;;
55811;SDS011;41742;52.048;6.092;2022-11-14T09:30:16;22.85;;;11.18;;
55811;SDS011;41742;52.048;6.092;2022-11-14T09:33:01;19.88;;;10.00;;
55811;SDS011;41742;52.048;6.092;2022-11-14T09:35:46;18.58;;;9.38;;
55811;SDS011;41742;52.048;6.092;2022-11-14T09:38:30;22.85;;;9.30;;
55811;SDS011;41742;52.048;6.092;2022-11-14T09:41:22;20.13;;;10.35;;
55811;SDS011;41742;52.048;6.092;2022-11-14T09:44:24;20.27;;;10.07;;
55811;SDS011;41742;52.048;6.092;2022-11-14T09:47:28;21.00;;;10.30;;
55811;SDS011;41742;52.048;6.092;2022-11-14T09:50:21;17.02;;;8.85;;
55811;SDS011;41742;52.048;6.092;2022-11-14T09:53:13;20.55;;;9.05;;
55811;SDS011;41742;52.048;6.092;2022-11-14T09:56:12;19.70;;;9.93;;
55811;SDS011;41742;52.048;6.092;2022-11-14T09:58:59;15.43;;;8.43;;
55811;SDS011;41742;52.048;6.092;2022-11-14T10:02:09;17.88;;;9.30;;
55811;SDS011;41742;52.048;6.092;2022-11-14T10:11:00;18.52;;;9.20;;
55811;SDS011;41742;52.048;6.092;2022-11-14T10:20:14;17.98;;;8.63;;
55811;SDS011;41742;52.048;6.092;2022-11-14T10:26:24;14.23;;;8.45;;
55811;SDS011;41742;52.048;6.092;2022-11-14T10:35:16;15.48;;;9.00;;
55811;SDS011;41742;52.048;6.092;2022-11-14T10:41:12;17.80;;;7.80;;
55811;SDS011;41742;52.048;6.092;2022-11-14T10:43:56;13.60;;;7.75;;
55811;SDS011;41742;52.048;6.092;2022-11-14T10:46:44;11.80;;;7.40;;
55811;SDS011;41742;52.048;6.092;2022-11-14T10:49:33;15.15;;;8.35;;
55811;SDS011;41742;52.048;6.092;2022-11-14T10:52:20;15.43;;;7.55;;
55811;SDS011;41742;52.048;6.092;2022-11-14T10:55:12;18.08;;;8.93;;
55811;SDS011;41742;52.048;6.092;2022-11-14T10:57:58;14.82;;;7.82;;
55811;SDS011;41742;52.048;6.092;2022-11-14T11:00:42;15.07;;;7.13;;
55811;SDS011;41742;52.048;6.092;2022-11-14T11:03:38;13.48;;;7.25;;
55811;SDS011;41742;52.048;6.092;2022-11-14T11:06:27;14.70;;;7.68;;
55811;SDS011;41742;52.048;6.092;2022-11-14T11:09:13;14.18;;;6.57;;
55811;SDS011;41742;52.048;6.092;2022-11-14T11:15:20;12.50;;;7.63;;
55811;SDS011;41742;52.048;6.092;2022-11-14T11:18:21;27.10;;;7.93;;
55811;SDS011;41742;52.048;6.092;2022-11-14T11:21:12;13.70;;;7.22;;
55811;SDS011;41742;52.048;6.092;2022-11-14T11:23:57;13.38;;;7.55;;
55811;SDS011;41742;52.048;6.092;2022-11-14T11:26:41;15.80;;;6.78;;
55811;SDS011;41742;52.048;6.092;2022-11-14T11:29:25;14.63;;;8.07;;
55811;SDS011;41742;52.048;6.092;2022-11-14T11:32:10;13.75;;;7.80;;
55811;SDS011;41742;52.048;6.092;2022-11-14T11:34:55;14.95;;;7.82;;
55811;SDS011;41742;52.048;6.092;2022-11-14T11:37:43;16.52;;;8.77;;
55811;SDS011;41742;52.048;6.092;2022-11-14T11:40:37;19.30;;;9.00;;
55811;SDS011;41742;52.048;6.092;2022-11-14T11:43:29;12.38;;;7.45;;
55811;SDS011;41742;52.048;6.092;2022-11-14T11:46:41;19.33;;;10.23;;
55811;SDS011;41742;52.048;6.092;2022-11-14T11:49:42;15.85;;;9.07;;
55811;SDS011;41742;52.048;6.092;2022-11-14T11:55:39;20.33;;;8.30;;
55811;SDS011;41742;52.048;6.092;2022-11-14T11:58:40;19.00;;;8.70;;
55811;SDS011;41742;52.048;6.092;2022-11-14T12:01:28;15.88;;;8.60;;
55811;SDS011;41742;52.048;6.092;2022-11-14T12:04:12;16.13;;;9.20;;
55811;SDS011;41742;52.048;6.092;2022-11-14T12:09:52;14.32;;;8.45;;
55811;SDS011;41742;52.048;6.092;2022-11-14T12:21:17;20.80;;;8.27;;
55811;SDS011;41742;52.048;6.092;2022-11-14T12:24:19;15.15;;;9.23;;
55811;SDS011;41742;52.048;6.092;2022-11-14T12:30:37;14.20;;;8.50;;
55811;SDS011;41742;52.048;6.092;2022-11-14T12:34:06;18.83;;;9.52;;
55811;SDS011;41742;52.048;6.092;2022-11-14T12:36:36;18.08;;;8.88;;
55811;SDS011;41742;52.048;6.092;2022-11-14T12:39:26;13.13;;;7.50;;
55811;SDS011;41742;52.048;6.092;2022-11-14T12:42:12;11.90;;;5.95;;
55811;SDS011;41742;52.048;6.092;2022-11-14T12:45:13;16.35;;;7.82;;
55811;SDS011;41742;52.048;6.092;2022-11-14T12:48:46;13.25;;;8.25;;
55811;SDS011;41742;52.048;6.092;2022-11-14T12:57:34;16.85;;;8.63;;
55811;SDS011;41742;52.048;6.092;2022-11-14T13:03:51;16.17;;;8.30;;
55811;SDS011;41742;52.048;6.092;2022-11-14T13:10:31;15.35;;;6.30;;
55811;SDS011;41742;52.048;6.092;2022-11-14T13:13:22;15.93;;;7.28;;
55811;SDS011;41742;52.048;6.092;2022-11-14T13:16:28;7.97;;;4.57;;
55811;SDS011;41742;52.048;6.092;2022-11-14T13:19:32;10.15;;;6.25;;
55811;SDS011;41742;52.048;6.092;2022-11-14T13:22:40;15.15;;;7.60;;
55811;SDS011;41742;52.048;6.092;2022-11-14T13:25:25;15.02;;;6.90;;
55811;SDS011;41742;52.048;6.092;2022-11-14T13:34:31;15.40;;;6.53;;
55811;SDS011;41742;52.048;6.092;2022-11-14T13:49:46;17.08;;;6.85;;
55811;SDS011;41742;52.048;6.092;2022-11-14T13:52:58;13.05;;;6.20;;
55811;SDS011;41742;52.048;6.092;2022-11-14T13:55:51;10.00;;;6.35;;
55811;SDS011;41742;52.048;6.092;2022-11-14T13:59:00;10.00;;;6.15;;
55811;SDS011;41742;52.048;6.092;2022-11-14T14:02:14;10.00;;;6.22;;
55811;SDS011;41742;52.048;6.092;2022-11-14T14:05:31;9.77;;;6.05;;
55811;SDS011;41742;52.048;6.092;2022-11-14T14:14:26;15.68;;;6.43;;
55811;SDS011;41742;52.048;6.092;2022-11-14T14:29:22;8.82;;;5.50;;
55811;SDS011;41742;52.048;6.092;2022-11-14T14:34:58;12.10;;;6.70;;
55811;SDS011;41742;52.048;6.092;2022-11-14T14:37:56;12.60;;;5.47;;
55811;SDS011;41742;52.048;6.092;2022-11-14T14:40:40;11.93;;;6.20;;
55811;SDS011;41742;52.048;6.092;2022-11-14T14:46:26;10.60;;;6.18;;
55811;SDS011;41742;52.048;6.092;2022-11-14T14:49:16;9.45;;;5.05;;
55811;SDS011;41742;52.048;6.092;2022-11-14T14:52:19;15.40;;;5.75;;
55811;SDS011;41742;52.048;6.092;2022-11-14T14:55:21;8.93;;;5.57;;
55811;SDS011;41742;52.048;6.092;2022-11-14T14:58:14;8.68;;;5.22;;
55811;SDS011;41742;52.048;6.092;2022-11-14T15:01:15;11.50;;;6.93;;
55811;SDS011;41742;52.048;6.092;2022-11-14T15:06:51;11.63;;;6.38;;
55811;SDS011;41742;52.048;6.092;2022-11-14T15:09:38;11.60;;;5.82;;
55811;SDS011;41742;52.048;6.092;2022-11-14T15:12:37;13.95;;;6.68;;
55811;SDS011;41742;52.048;6.092;2022-11-14T15:15:23;8.43;;;6.15;;
55811;SDS011;41742;52.048;6.092;2022-11-14T15:18:13;13.52;;;6.20;;
55811;SDS011;41742;52.048;6.092;2022-11-14T15:21:11;11.80;;;6.18;;
55811;SDS011;41742;52.048;6.092;2022-11-14T15:24:11;10.23;;;6.15;;
55811;SDS011;41742;52.048;6.092;2022-11-14T15:26:56;12.23;;;5.75;;
55811;SDS011;41742;52.048;6.092;2022-11-14T15:29:44;12.05;;;6.10;;
55811;SDS011;41742;52.048;6.092;2022-11-14T15:32:30;12.27;;;6.53;;
55811;SDS011;41742;52.048;6.092;2022-11-14T15:41:15;8.98;;;5.30;;
55811;SDS011;41742;52.048;6.092;2022-11-14T15:44:04;12.95;;;6.47;;
55811;SDS011;41742;52.048;6.092;2022-11-14T15:49:33;15.48;;;6.72;;
55811;SDS011;41742;52.048;6.092;2022-11-14T15:52:19;11.55;;;6.13;;
55811;SDS011;41742;52.048;6.092;2022-11-14T15:55:12;11.50;;;5.97;;
55811;SDS011;41742;52.048;6.092;2022-11-14T15:57:58;10.63;;;5.20;;
55811;SDS011;41742;52.048;6.092;2022-11-14T16:00:44;13.40;;;6.75;;
55811;SDS011;41742;52.048;6.092;2022-11-14T16:03:30;10.68;;;6.30;;
55811;SDS011;41742;52.048;6.092;2022-11-14T16:06:14;11.77;;;5.60;;
55811;SDS011;41742;52.048;6.092;2022-11-14T16:08:59;10.10;;;5.60;;
55811;SDS011;41742;52.048;6.092;2022-11-14T16:11:43;10.43;;;6.30;;
55811;SDS011;41742;52.048;6.092;2022-11-14T16:14:28;12.18;;;6.78;;
55811;SDS011;41742;52.048;6.092;2022-11-14T16:17:13;9.50;;;6.07;;
55811;SDS011;41742;52.048;6.092;2022-11-14T16:19:59;10.75;;;6.10;;
55811;SDS011;41742;52.048;6.092;2022-11-14T16:22:43;7.50;;;4.93;;
55811;SDS011;41742;52.048;6.092;2022-11-14T16:25:29;11.65;;;6.47;;
55811;SDS011;41742;52.048;6.092;2022-11-14T16:28:14;11.88;;;5.95;;
55811;SDS011;41742;52.048;6.092;2022-11-14T16:30:59;11.48;;;6.93;;
55811;SDS011;41742;52.048;6.092;2022-11-14T16:33:43;11.13;;;5.78;;
55811;SDS011;41742;52.048;6.092;2022-11-14T16:36:27;13.82;;;6.63;;
55811;SDS011;41742;52.048;6.092;2022-11-14T16:39:11;10.00;;;5.07;;
55811;SDS011;41742;52.048;6.092;2022-11-14T16:42:00;14.32;;;7.00;;
55811;SDS011;41742;52.048;6.092;2022-11-14T16:44:47;13.45;;;7.25;;
55811;SDS011;41742;52.048;6.092;2022-11-14T16:47:32;12.35;;;7.55;;
55811;SDS011;41742;52.048;6.092;2022-11-14T16:50:17;16.48;;;7.65;;
55811;SDS011;41742;52.048;6.092;2022-11-14T16:53:01;12.27;;;7.15;;
55811;SDS011;41742;52.048;6.092;2022-11-14T16:58:30;17.13;;;7.13;;
55811;SDS011;41742;52.048;6.092;2022-11-14T17:01:14;10.95;;;5.28;;
55811;SDS011;41742;52.048;6.092;2022-11-14T17:03:58;18.45;;;7.68;;
55811;SDS011;41742;52.048;6.092;2022-11-14T17:06:42;12.38;;;6.95;;
55811;SDS011;41742;52.048;6.092;2022-11-14T17:09:26;10.57;;;6.07;;
55811;SDS011;41742;52.048;6.092;2022-11-14T17:12:10;10.60;;;6.75;;
55811;SDS011;41742;52.048;6.092;2022-11-14T17:14:54;16.20;;;7.32;;
55811;SDS011;41742;52.048;6.092;2022-11-14T17:17:38;10.25;;;6.40;;
55811;SDS011;41742;52.048;6.092;2022-11-14T17:20:22;16.42;;;7.18;;
55811;SDS011;41742;52.048;6.092;2022-11-14T17:25:51;14.20;;;7.32;;
55811;SDS011;41742;52.048;6.092;2022-11-14T17:28:36;10.93;;;5.93;;
55811;SDS011;41742;52.048;6.092;2022-11-14T17:31:21;14.70;;;7.78;;
55811;SDS011;41742;52.048;6.092;2022-11-14T17:34:07;14.40;;;7.80;;
55811;SDS011;41742;52.048;6.092;2022-11-14T17:36:52;16.85;;;7.30;;
55811;SDS011;41742;52.048;6.092;2022-11-14T17:39:36;14.25;;;6.78;;
55811;SDS011;41742;52.048;6.092;2022-11-14T17:42:20;9.73;;;6.13;;
55811;SDS011;41742;52.048;6.092;2022-11-14T17:45:04;13.82;;;7.03;;
55811;SDS011;41742;52.048;6.092;2022-11-14T17:47:48;16.73;;;8.18;;
55811;SDS011;41742;52.048;6.092;2022-11-14T17:50:37;18.15;;;7.47;;
55811;SDS011;41742;52.048;6.092;2022-11-14T17:53:22;12.77;;;6.93;;
55811;SDS011;41742;52.048;6.092;2022-11-14T17:56:06;12.73;;;6.97;;
55811;SDS011;41742;52.048;6.092;2022-11-14T17:58:54;15.00;;;8.02;;
55811;SDS011;41742;52.048;6.092;2022-11-14T18:04:22;15.23;;;7.10;;
55811;SDS011;41742;52.048;6.092;2022-11-14T18:07:07;16.38;;;7.80;;
55811;SDS011;41742;52.048;6.092;2022-11-14T18:09:51;15.82;;;8.23;;
55811;SDS011;41742;52.048;6.092;2022-11-14T18:12:35;20.48;;;10.55;;
55811;SDS011;41742;52.048;6.092;2022-11-14T18:15:19;25.17;;;10.85;;
55811;SDS011;41742;52.048;6.092;2022-11-14T18:18:03;18.67;;;11.45;;
55811;SDS011;41742;52.048;6.092;2022-11-14T18:20:47;14.18;;;8.98;;
55811;SDS011;41742;52.048;6.092;2022-11-14T18:23:31;16.02;;;8.10;;
55811;SDS011;41742;52.048;6.092;2022-11-14T18:26:18;14.40;;;8.02;;
55811;SDS011;41742;52.048;6.092;2022-11-14T18:29:05;15.07;;;7.85;;
55811;SDS011;41742;52.048;6.092;2022-11-14T18:31:50;17.02;;;8.50;;
55811;SDS011;41742;52.048;6.092;2022-11-14T18:34:34;13.75;;;7.63;;
55811;SDS011;41742;52.048;6.092;2022-11-14T18:37:23;14.77;;;8.10;;
55811;SDS011;41742;52.048;6.092;2022-11-14T18:40:07;13.48;;;7.75;;
55811;SDS011;41742;52.048;6.092;2022-11-14T18:42:54;19.02;;;11.90;;
55811;SDS011;41742;52.048;6.092;2022-11-14T18:45:38;16.60;;;9.40;;
55811;SDS011;41742;52.048;6.092;2022-11-14T18:48:23;17.35;;;9.57;;
55811;SDS011;41742;52.048;6.092;2022-11-14T18:51:12;14.43;;;8.30;;
55811;SDS011;41742;52.048;6.092;2022-11-14T18:53:58;13.45;;;7.30;;
55811;SDS011;41742;52.048;6.092;2022-11-14T18:56:42;17.40;;;8.38;;
55811;SDS011;41742;52.048;6.092;2022-11-14T18:59:27;11.40;;;6.57;;
55811;SDS011;41742;52.048;6.092;2022-11-14T19:02:11;17.02;;;7.57;;
55811;SDS011;41742;52.048;6.092;2022-11-14T19:04:55;14.27;;;7.18;;